Time;durP1;ratioP1;P1;durP2;ratioP2;P2;SDS_P1;SDS_P2;PMS_P1;PMS_P2;Temp;Humidity;BMP_temperature;BMP_pressure;BME280_temperature;BME280_humidity;BME280_pressure;Samples;Min_cycle;Max_cycle;Signal;HPM_P1;HPM_P2
2022/08/08 00:04:02;;;;;;;2.00;1.50;;;;;19.30;99228.00;;;;16735578;28;20226;-46
2022/08/08 00:12:10;;;;;;;2.17;1.30;;;;;19.50;99225.00;;;;16733918;28;20221;-46
2022/08/08 00:20:14;;;;;;;1.70;1.60;;;;;19.60;99232.00;;;;16733272;28;20821;-46
2022/08/08 00:28:33;;;;;;;2.00;1.73;;;;;19.50;99246.00;;;;16727038;28;20446;-46
2022/08/08 00:36:42;;;;;;;1.50;1.40;;;;;19.20;99252.00;;;;16732194;28;20218;-46
2022/08/08 00:45:09;;;;;;;1.50;1.33;;;;;19.40;99249.00;;;;16715946;28;20418;-46
2022/08/08 00:53:20;;;;;;;1.40;1.30;;;;;18.40;99255.00;;;;16717512;28;20217;-46
2022/08/08 01:01:34;;;;;;;1.90;1.70;;;;;18.60;99258.00;;;;16709878;28;20733;-46
2022/08/08 01:10:26;;;;;;;1.50;1.40;;;;;19.00;99256.00;;;;16715768;28;20224;-46
2022/08/08 01:19:18;;;;;;;2.47;2.27;;;;;19.60;99268.00;;;;16709445;28;20214;-46
2022/08/08 01:27:55;;;;;;;1.90;1.80;;;;;19.60;99268.00;;;;16578691;28;20232;-46
2022/08/08 01:36:33;;;;;;;2.10;1.90;;;;;18.40;99269.00;;;;16718172;28;20214;-47
2022/08/08 01:44:45;;;;;;;2.10;1.80;;;;;18.60;99271.00;;;;16721921;28;20251;-47
2022/08/08 01:52:55;;;;;;;3.73;1.50;;;;;18.70;99271.00;;;;16697539;28;20230;-46
2022/08/08 02:01:11;;;;;;;1.93;1.83;;;;;18.40;99274.00;;;;16702427;28;20225;-46
2022/08/08 02:09:28;;;;;;;2.70;2.20;;;;;19.10;99271.00;;;;16700860;28;20228;-46
2022/08/08 02:17:39;;;;;;;2.97;2.07;;;;;18.30;99266.00;;;;16694148;28;20240;-48
2022/08/08 02:25:49;;;;;;;2.00;1.80;;;;;18.30;99254.00;;;;16686697;28;20241;-46
2022/08/08 02:34:03;;;;;;;4.20;2.00;;;;;17.80;99249.00;;;;16683224;28;20231;-46
2022/08/08 02:42:31;;;;;;;1.87;1.67;;;;;18.00;99256.00;;;;16707060;28;20236;-47
2022/08/08 02:51:05;;;;;;;2.50;2.30;;;;;17.70;99262.00;;;;16691819;28;20286;-46
2022/08/08 02:59:43;;;;;;;2.33;1.70;;;;;17.60;99263.00;;;;16701914;28;20205;-46
2022/08/08 03:08:27;;;;;;;2.43;2.20;;;;;17.70;99269.00;;;;16680087;28;20229;-45
2022/08/08 03:16:38;;;;;;;2.27;2.07;;;;;18.20;99274.00;;;;16677410;28;20247;-48
2022/08/08 03:24:45;;;;;;;5.57;2.70;;;;;17.40;99278.00;;;;16688023;28;20217;-46
2022/08/08 03:41:10;;;;;;;2.40;2.10;;;;;17.60;99289.00;;;;16694901;28;20286;-46
2022/08/08 03:49:18;;;;;;;2.87;2.40;;;;;18.00;99295.00;;;;16700241;28;20204;-47
2022/08/08 03:57:24;;;;;;;3.07;2.30;;;;;16.70;99313.00;;;;16711258;28;20241;-46
2022/08/08 04:05:27;;;;;;;2.57;2.20;;;;;17.80;99315.00;;;;16693851;28;20234;-46
2022/08/08 04:13:31;;;;;;;2.33;2.13;;;;;17.20;99329.00;;;;16725692;22;20324;-47
2022/08/08 04:21:37;;;;;;;2.67;2.47;;;;;18.00;99326.00;;;;16732917;28;20220;-48
2022/08/08 04:29:41;;;;;;;2.40;2.20;;;;;17.70;99340.00;;;;16722707;28;20235;-47
2022/08/08 04:37:46;;;;;;;2.00;1.80;;;;;20.30;99331.00;;;;16708829;28;20223;-47
2022/08/08 04:45:55;;;;;;;2.63;2.40;;;;;17.70;99353.00;;;;16708193;28;20240;-47
2022/08/08 04:53:59;;;;;;;2.40;2.20;;;;;17.80;99347.00;;;;16694880;28;20245;-47
2022/08/08 05:02:03;;;;;;;2.70;2.50;;;;;19.20;99360.00;;;;16690197;28;20217;-47
2022/08/08 05:10:06;;;;;;;2.50;2.30;;;;;17.90;99369.00;;;;16660093;28;20225;-47
2022/08/08 05:18:12;;;;;;;11.43;2.90;;;;;18.80;99369.00;;;;16677461;28;20233;-47
2022/08/08 05:26:15;;;;;;;5.13;2.43;;;;;19.40;99359.00;;;;16670066;28;20218;-48
2022/08/08 05:34:26;;;;;;;2.80;2.50;;;;;19.60;99370.00;;;;16684403;28;20234;-49
2022/08/08 05:42:32;;;;;;;3.50;3.20;;;;;19.00;99381.00;;;;16681342;28;20569;-48
2022/08/08 05:50:37;;;;;;;3.40;3.20;;;;;19.80;99375.00;;;;16676888;28;20222;-49
2022/08/08 05:58:42;;;;;;;7.10;3.20;;;;;20.30;99374.00;;;;16666149;28;20205;-49
2022/08/08 06:06:49;;;;;;;5.00;4.60;;;;;20.70;99378.00;;;;16681803;28;20672;-49
2022/08/08 06:14:52;;;;;;;4.87;4.37;;;;;21.10;99381.00;;;;16671527;28;20311;-49
2022/08/08 06:22:56;;;;;;;4.13;3.73;;;;;21.10;99389.00;;;;16661978;28;20694;-50
2022/08/08 06:31:01;;;;;;;4.60;3.70;;;;;21.70;99389.00;;;;16667967;28;20230;-49
2022/08/08 06:39:09;;;;;;;5.17;4.37;;;;;21.60;99399.00;;;;16664900;28;20280;-46
2022/08/08 06:47:14;;;;;;;4.30;3.97;;;;;22.10;99399.00;;;;16670397;28;20224;-47
2022/08/08 06:55:19;;;;;;;9.63;4.73;;;;;22.90;99396.00;;;;16683730;28;20225;-49
2022/08/08 07:03:32;;;;;;;10.10;6.00;;;;;23.40;99398.00;;;;16680960;28;20356;-49
2022/08/08 07:11:41;;;;;;;4.13;3.83;;;;;23.50;99399.00;;;;16672214;28;20749;-48
2022/08/08 07:19:51;;;;;;;5.23;4.63;;;;;24.10;99395.00;;;;16678568;28;20205;-49
2022/08/08 07:28:01;;;;;;;7.20;5.30;;;;;24.00;99399.00;;;;16672167;28;20948;-48
2022/08/08 07:36:06;;;;;;;7.00;6.03;;;;;24.50;99399.00;;;;16651792;28;20227;-49
2022/08/08 07:44:10;;;;;;;4.77;4.37;;;;;25.10;99399.00;;;;16640946;28;20368;-49
2022/08/08 07:52:14;;;;;;;5.73;4.30;;;;;25.30;99404.00;;;;16670636;28;20234;-48
2022/08/08 08:00:19;;;;;;;7.50;5.70;;;;;25.40;99411.00;;;;16649446;28;20215;-49
2022/08/08 08:08:39;;;;;;;6.23;3.60;;;;;26.10;99401.00;;;;16673334;28;20222;-48
2022/08/08 08:16:46;;;;;;;4.23;3.07;;;;;25.90;99412.00;;;;16670616;28;20226;-49
2022/08/08 08:24:49;;;;;;;18.37;5.90;;;;;25.60;99411.00;;;;16656104;28;20237;-48
2022/08/08 08:32:56;;;;;;;3.70;3.10;;;;;26.40;99413.00;;;;16662625;28;20245;-49
2022/08/08 08:41:02;;;;;;;4.37;2.70;;;;;26.50;99405.00;;;;16661154;28;20231;-49
2022/08/08 08:49:06;;;;;;;3.47;3.27;;;;;26.80;99417.00;;;;16653260;28;20219;-50
2022/08/08 08:57:12;;;;;;;5.50;3.43;;;;;26.40;99410.00;;;;16660075;28;20237;-49
2022/08/08 09:05:16;;;;;;;4.30;3.90;;;;;26.90;99405.00;;;;16650015;28;20317;-48
2022/08/08 09:13:20;;;;;;;8.00;4.07;;;;;26.60;99404.00;;;;16655484;28;20226;-49
2022/08/08 09:21:24;;;;;;;3.57;3.20;;;;;27.00;99396.00;;;;16673456;28;20348;-49
2022/08/08 09:29:28;;;;;;;3.63;3.13;;;;;27.30;99393.00;;;;16641058;28;20214;-49
2022/08/08 09:37:45;;;;;;;3.70;3.40;;;;;27.90;99396.00;;;;16639352;28;20992;-50
2022/08/08 09:45:57;;;;;;;2.80;2.50;;;;;28.40;99386.00;;;;16636910;28;20227;-49
2022/08/08 09:54:03;;;;;;;2.37;2.10;;;;;28.60;99377.00;;;;16674354;28;20827;-49
2022/08/08 10:02:05;;;;;;;2.60;2.40;;;;;29.20;99375.00;;;;16692693;28;20214;-50
2022/08/08 10:10:10;;;;;;;2.90;2.70;;;;;29.70;99377.00;;;;16710638;28;20304;-49
2022/08/08 10:18:13;;;;;;;3.47;2.50;;;;;30.50;99371.00;;;;16713416;22;20253;-51
2022/08/08 10:26:20;;;;;;;5.13;2.30;;;;;30.80;99359.00;;;;16675859;28;20765;-51
2022/08/08 10:34:24;;;;;;;2.57;2.37;;;;;29.80;99358.00;;;;16663233;28;20222;-52
2022/08/08 10:42:33;;;;;;;2.60;2.40;;;;;31.60;99357.00;;;;16663225;28;20194;-53
2022/08/08 10:50:38;;;;;;;2.47;2.30;;;;;31.10;99361.00;;;;16665465;28;20602;-52
2022/08/08 10:58:42;;;;;;;2.00;1.77;;;;;31.10;99360.00;;;;16659967;28;20268;-52
2022/08/08 11:06:44;;;;;;;2.33;1.93;;;;;32.10;99353.00;;;;16660157;28;20244;-52
2022/08/08 11:14:55;;;;;;;1.90;1.80;;;;;32.20;99346.00;;;;16663092;28;20232;-53
2022/08/08 11:23:00;;;;;;;2.00;1.70;;;;;32.40;99337.00;;;;16660558;28;20277;-53
2022/08/08 11:31:05;;;;;;;3.60;1.97;;;;;31.60;99338.00;;;;16658310;28;20222;-52
2022/08/08 11:39:08;;;;;;;2.20;2.00;;;;;33.00;99329.00;;;;16658053;28;20507;-53
2022/08/08 11:47:12;;;;;;;2.23;1.30;;;;;32.70;99326.00;;;;16657336;28;20222;-53
2022/08/08 11:55:18;;;;;;;1.87;1.50;;;;;34.30;99326.00;;;;16648303;28;20302;-51
2022/08/08 12:03:24;;;;;;;2.20;1.40;;;;;33.60;99321.00;;;;16657013;28;20313;-52
2022/08/08 12:11:27;;;;;;;1.67;1.57;;;;;31.50;99309.00;;;;16656363;28;20231;-51
2022/08/08 12:19:30;;;;;;;3.00;1.83;;;;;34.20;99297.00;;;;16661441;28;20234;-51
2022/08/08 12:27:42;;;;;;;1.80;1.70;;;;;34.10;99305.00;;;;16655502;28;20310;-51
2022/08/08 12:35:47;;;;;;;1.57;1.47;;;;;35.70;99308.00;;;;16650552;28;20730;-53
2022/08/08 12:43:50;;;;;;;1.97;1.40;;;;;36.60;99292.00;;;;16654061;28;20598;-52
2022/08/08 12:51:54;;;;;;;3.43;1.33;;;;;36.40;99298.00;;;;16653699;28;20309;-52
2022/08/08 12:59:57;;;;;;;1.63;1.53;;;;;34.50;99308.00;;;;16654152;28;20379;-53
2022/08/08 13:08:01;;;;;;;2.87;1.57;;;;;35.80;99290.00;;;;16651210;28;20225;-53
2022/08/08 13:16:17;;;;;;;1.47;1.37;;;;;37.60;99295.00;;;;16660407;28;20344;-53
2022/08/08 13:24:22;;;;;;;2.13;1.57;;;;;35.60;99289.00;;;;16651653;28;20269;-53
2022/08/08 13:32:27;;;;;;;2.13;1.57;;;;;34.50;99292.00;;;;16649587;28;20411;-53
2022/08/08 13:40:31;;;;;;;1.73;1.40;;;;;36.20;99289.00;;;;16649712;28;20211;-53
2022/08/08 13:48:47;;;;;;;2.17;1.30;;;;;37.50;99282.00;;;;16652099;28;20656;-53
2022/08/08 13:57:01;;;;;;;3.00;1.90;;;;;39.40;99273.00;;;;16651169;28;20293;-53
2022/08/08 14:05:06;;;;;;;1.70;1.60;;;;;37.40;99267.00;;;;16648603;28;20352;-53
2022/08/08 14:13:14;;;;;;;1.97;1.77;;;;;38.20;99263.00;;;;16649026;28;20285;-53
2022/08/08 14:21:16;;;;;;;3.83;1.77;;;;;36.00;99251.00;;;;16655859;28;20421;-52
2022/08/08 14:29:25;;;;;;;1.97;1.53;;;;;38.50;99255.00;;;;16636942;28;20222;-52
2022/08/08 14:37:28;;;;;;;2.50;2.30;;;;;38.40;99247.00;;;;16646893;28;20585;-53
2022/08/08 14:45:32;;;;;;;3.23;1.67;;;;;40.20;99245.00;;;;16659009;28;20335;-53
2022/08/08 14:53:38;;;;;;;2.83;1.60;;;;;38.50;99235.00;;;;16648187;28;20226;-52
2022/08/08 15:01:47;;;;;;;2.87;1.60;;;;;39.50;99234.00;;;;16648209;28;20198;-53
2022/08/08 15:09:50;;;;;;;3.00;1.50;;;;;38.70;99238.00;;;;16664493;28;20383;-52
2022/08/08 15:17:53;;;;;;;1.40;1.30;;;;;40.60;99234.00;;;;16652517;28;20234;-53
2022/08/08 15:25:56;;;;;;;4.87;1.43;;;;;39.80;99239.00;;;;16663478;28;20305;-52
2022/08/08 15:34:00;;;;;;;2.10;1.57;;;;;38.10;99232.00;;;;16656642;28;20229;-52
2022/08/08 15:42:03;;;;;;;4.03;1.87;;;;;37.60;99230.00;;;;16678146;28;20198;-52
2022/08/08 15:50:07;;;;;;;3.20;1.83;;;;;40.20;99238.00;;;;16660398;28;20245;-52
2022/08/08 15:58:10;;;;;;;1.50;1.27;;;;;38.50;99224.00;;;;16675231;28;20309;-52
2022/08/08 16:06:13;;;;;;;1.43;1.20;;;;;40.00;99225.00;;;;16656948;28;20229;-53
2022/08/08 16:22:47;;;;;;;3.60;2.30;;;;;40.20;99234.00;;;;16453755;28;20205;-50
2022/08/08 16:30:50;;;;;;;2.83;1.23;;;;;40.50;99237.00;;;;16509867;28;20231;-49
2022/08/08 16:38:53;;;;;;;2.20;1.27;;;;;40.20;99238.00;;;;16520349;28;20306;-50
2022/08/08 16:46:56;;;;;;;1.93;1.20;;;;;40.70;99240.00;;;;16516324;28;20250;-49
2022/08/08 16:55:00;;;;;;;3.10;1.10;;;;;40.40;99229.00;;;;16519248;28;20658;-49
2022/08/08 17:03:03;;;;;;;3.27;1.30;;;;;40.80;99242.00;;;;16514709;28;20284;-50
2022/08/08 17:11:07;;;;;;;1.97;1.27;;;;;40.20;99251.00;;;;16516435;28;20227;-50
2022/08/08 17:19:09;;;;;;;3.53;1.23;;;;;41.30;99251.00;;;;16515505;28;20282;-51
2022/08/08 17:27:13;;;;;;;2.30;1.47;;;;;40.20;99255.00;;;;16513733;28;20222;-50
2022/08/08 17:35:16;;;;;;;4.20;1.57;;;;;37.40;99263.00;;;;16514684;28;20228;-50
2022/08/08 17:43:20;;;;;;;3.23;1.30;;;;;39.10;99265.00;;;;16508628;28;20624;-50
2022/08/08 17:51:22;;;;;;;1.73;1.10;;;;;39.00;99271.00;;;;16513267;28;20240;-49
2022/08/08 17:59:26;;;;;;;4.60;1.50;;;;;37.60;99276.00;;;;16500149;28;20229;-47
2022/08/08 18:07:28;;;;;;;2.27;1.50;;;;;37.00;99283.00;;;;16512813;28;20228;-47
2022/08/08 18:15:32;;;;;;;7.90;1.67;;;;;34.70;99289.00;;;;16506401;28;20310;-46
2022/08/08 18:23:35;;;;;;;2.90;1.70;;;;;33.70;99286.00;;;;16507823;28;20274;-46
2022/08/08 18:31:39;;;;;;;5.00;2.17;;;;;32.80;99291.00;;;;16508668;28;20684;-46
2022/08/08 18:39:41;;;;;;;2.43;2.00;;;;;32.30;99299.00;;;;16509073;28;20226;-46
2022/08/08 18:47:45;;;;;;;2.40;2.10;;;;;32.50;99317.00;;;;16509398;28;20423;-46
2022/08/08 18:55:48;;;;;;;3.30;2.20;;;;;32.10;99317.00;;;;16509769;28;20232;-46
2022/08/08 19:03:51;;;;;;;2.47;2.10;;;;;31.60;99328.00;;;;16510166;28;20330;-46
2022/08/08 19:11:54;;;;;;;1.70;1.60;;;;;30.90;99339.00;;;;16510606;28;20231;-46
2022/08/08 19:19:58;;;;;;;2.40;1.80;;;;;29.00;99356.00;;;;16518712;28;20237;-45
2022/08/08 19:28:00;;;;;;;3.83;3.40;;;;;27.40;99365.00;;;;16522769;28;20313;-46
2022/08/08 19:36:05;;;;;;;3.00;1.77;;;;;26.20;99372.00;;;;16519236;28;20223;-46
2022/08/08 19:44:07;;;;;;;2.00;1.80;;;;;25.80;99378.00;;;;16518700;28;20294;-46
2022/08/08 19:52:11;;;;;;;3.47;2.00;;;;;25.20;99390.00;;;;16517100;28;20235;-46
2022/08/08 20:00:16;;;;;;;3.00;1.77;;;;;25.10;99392.00;;;;16517246;28;20216;-46
2022/08/08 20:08:21;;;;;;;2.90;1.63;;;;;24.60;99395.00;;;;16523128;28;20253;-46
2022/08/08 20:16:23;;;;;;;1.93;1.73;;;;;24.20;99399.00;;;;16519267;28;20605;-46
2022/08/08 20:24:27;;;;;;;2.50;1.70;;;;;24.00;99398.00;;;;16521095;28;20196;-46
2022/08/08 20:32:29;;;;;;;3.10;1.90;;;;;23.60;99408.00;;;;16513811;28;20227;-46
2022/08/08 20:40:33;;;;;;;1.63;1.53;;;;;23.80;99402.00;;;;16516476;28;20844;-46
2022/08/08 20:48:35;;;;;;;1.93;1.70;;;;;23.50;99404.00;;;;16516116;28;20242;-46
2022/08/08 20:56:39;;;;;;;3.47;2.00;;;;;23.40;99415.00;;;;16509649;28;20315;-46
2022/08/08 21:04:43;;;;;;;2.37;1.97;;;;;23.30;99410.00;;;;16513093;28;20675;-46
2022/08/08 21:12:47;;;;;;;3.67;1.73;;;;;22.90;99409.00;;;;16513259;28;20677;-47
2022/08/08 21:20:49;;;;;;;2.03;1.93;;;;;22.70;99416.00;;;;16514910;28;20755;-46
2022/08/08 21:28:53;;;;;;;2.17;1.97;;;;;23.10;99426.00;;;;16516195;28;20228;-46
2022/08/08 21:36:55;;;;;;;2.13;1.93;;;;;23.20;99427.00;;;;16518482;28;20230;-46
2022/08/08 21:44:59;;;;;;;1.80;1.70;;;;;23.10;99425.00;;;;16516751;28;20220;-46
2022/08/08 21:53:01;;;;;;;2.27;1.80;;;;;22.70;99426.00;;;;16517140;28;20771;-46
2022/08/08 22:01:06;;;;;;;2.17;1.97;;;;;22.50;99435.00;;;;16516639;28;20215;-46
2022/08/08 22:09:09;;;;;;;5.50;2.17;;;;;22.00;99424.00;;;;16515713;28;20697;-46
2022/08/08 22:17:13;;;;;;;3.07;1.90;;;;;21.70;99420.00;;;;16515640;28;20264;-46
2022/08/08 22:25:17;;;;;;;2.20;1.90;;;;;21.80;99412.00;;;;16514714;28;20208;-46
2022/08/08 22:33:20;;;;;;;4.77;2.20;;;;;22.80;99430.00;;;;16590905;22;20376;-46
2022/08/08 22:41:23;;;;;;;2.30;1.97;;;;;22.60;99425.00;;;;16844185;28;20212;-50
2022/08/08 22:49:26;;;;;;;3.80;1.87;;;;;21.70;99426.00;;;;16844021;28;20227;-49
2022/08/08 22:57:29;;;;;;;3.10;2.07;;;;;21.60;99431.00;;;;16849172;28;20227;-48
2022/08/08 23:05:33;;;;;;;2.30;1.80;;;;;21.30;99430.00;;;;16813838;28;20235;-49
2022/08/08 23:13:35;;;;;;;3.00;2.30;;;;;22.10;99422.00;;;;16845266;28;20615;-49
2022/08/08 23:21:39;;;;;;;2.40;2.20;;;;;21.20;99424.00;;;;16812612;28;20630;-49
2022/08/08 23:29:42;;;;;;;2.70;2.07;;;;;21.80;99436.00;;;;16809617;28;20307;-49
2022/08/08 23:37:46;;;;;;;2.23;1.90;;;;;21.50;99421.00;;;;16804818;28;20478;-47
2022/08/08 23:45:48;;;;;;;2.27;2.07;;;;;21.50;99422.00;;;;16820707;28;20587;-48
2022/08/08 23:53:52;;;;;;;4.07;1.90;;;;;20.90;99416.00;;;;16823958;28;20830;-48
